createdAt,value
2023-12-11T00:00:19.333Z,1.50
2023-12-11T00:05:15.267Z,1.20
2023-12-11T00:07:42.037Z,2.63
2023-12-11T00:10:09.104Z,2.45
2023-12-11T00:12:36.123Z,1.42
2023-12-11T00:15:02.889Z,3.70
2023-12-11T00:17:30.240Z,1.20
2023-12-11T00:19:57.732Z,1.52
2023-12-11T00:22:24.396Z,1.55
2023-12-11T00:24:51.292Z,1.70
2023-12-11T00:27:17.994Z,1.92
2023-12-11T00:29:44.564Z,2.17
2023-12-11T00:32:11.249Z,1.63
2023-12-11T00:34:38.074Z,2.40
2023-12-11T00:39:31.291Z,1.85
2023-12-11T00:41:58.093Z,2.30
2023-12-11T00:44:24.685Z,2.45
2023-12-11T00:46:51.321Z,1.63
2023-12-11T00:49:17.971Z,2.00
2023-12-11T00:51:45.077Z,1.90
2023-12-11T00:54:11.804Z,1.50
2023-12-11T00:56:38.493Z,1.95
2023-12-11T00:59:05.045Z,1.52
2023-12-11T01:01:31.691Z,2.33
2023-12-11T01:03:58.547Z,2.13
2023-12-11T01:08:51.596Z,1.48
2023-12-11T01:11:18.180Z,1.15
2023-12-11T01:13:44.820Z,1.75
2023-12-11T01:16:11.535Z,1.63
2023-12-11T01:21:05.149Z,2.63
2023-12-11T01:23:31.851Z,1.10
2023-12-11T01:25:58.397Z,0.70
2023-12-11T01:28:25.361Z,1.77
2023-12-11T01:30:51.998Z,1.73
2023-12-11T01:35:45.536Z,1.15
2023-12-11T01:38:12.150Z,2.55
2023-12-11T01:40:38.730Z,1.40
2023-12-11T01:43:20.037Z,1.40
2023-12-11T01:46:06.252Z,2.03
2023-12-11T01:48:33.519Z,1.48
2023-12-11T01:51:00.797Z,2.20
2023-12-11T01:53:28.799Z,1.52
2023-12-11T01:55:55.809Z,3.05
2023-12-11T01:58:23.819Z,1.95
2023-12-11T02:00:50.914Z,0.90
2023-12-11T02:03:18.046Z,1.08
2023-12-11T02:05:45.153Z,1.92
2023-12-11T02:08:12.131Z,1.00
2023-12-11T02:10:38.793Z,1.08
2023-12-11T02:13:05.573Z,1.48
2023-12-11T02:18:05.410Z,2.35
2023-12-11T02:23:01.510Z,0.75
2023-12-11T02:25:32.026Z,1.20
2023-12-11T02:27:59.290Z,1.15
2023-12-11T02:30:25.925Z,1.92
2023-12-11T02:32:53.370Z,1.38
2023-12-11T02:35:20.029Z,1.58
2023-12-11T02:37:46.637Z,1.80
2023-12-11T02:40:13.307Z,0.82
2023-12-11T02:42:46.873Z,1.20
2023-12-11T02:45:13.502Z,1.30
2023-12-11T02:47:40.165Z,1.40
2023-12-11T02:50:07.309Z,3.10
2023-12-11T02:52:33.964Z,1.60
2023-12-11T02:55:00.653Z,0.98
2023-12-11T02:57:27.411Z,2.17
2023-12-11T03:02:20.644Z,2.35
2023-12-11T03:04:47.271Z,1.30
2023-12-11T03:07:15.370Z,0.77
2023-12-11T03:09:42.082Z,1.90
2023-12-11T03:12:08.664Z,1.65
2023-12-11T03:14:35.265Z,1.13
2023-12-11T03:17:01.803Z,1.60
2023-12-11T03:19:28.651Z,1.17
2023-12-11T03:21:57.008Z,0.68
2023-12-11T03:24:23.809Z,1.70
2023-12-11T03:26:50.408Z,1.25
2023-12-11T03:29:17.267Z,1.65
2023-12-11T03:34:10.399Z,1.42
2023-12-11T03:39:04.328Z,2.40
2023-12-11T03:41:30.927Z,1.55
2023-12-11T03:43:57.481Z,1.73
2023-12-11T03:46:24.078Z,0.90
2023-12-11T03:48:50.733Z,1.55
2023-12-11T03:51:17.424Z,2.58
2023-12-11T03:53:44.020Z,1.17
2023-12-11T03:56:10.840Z,1.80
2023-12-11T04:01:04.277Z,1.98
2023-12-11T04:03:32.588Z,1.27
2023-12-11T04:05:59.406Z,0.88
2023-12-11T04:10:52.574Z,0.88
2023-12-11T04:13:19.149Z,1.42
2023-12-11T04:15:45.794Z,0.93
2023-12-11T04:18:12.452Z,1.42
2023-12-11T04:20:39.044Z,1.05
2023-12-11T04:23:05.712Z,1.58
2023-12-11T04:27:58.837Z,0.63
2023-12-11T04:30:25.457Z,1.02
2023-12-11T04:32:52.134Z,0.90
2023-12-11T04:37:45.246Z,1.08
2023-12-11T04:40:12.322Z,1.30
2023-12-11T04:42:38.992Z,1.85
2023-12-11T04:45:06.029Z,1.13
2023-12-11T04:47:33.208Z,0.85
2023-12-11T04:50:00.025Z,0.47
2023-12-11T04:54:53.362Z,0.70
2023-12-11T04:57:19.972Z,1.55
2023-12-11T04:59:46.607Z,1.35
2023-12-11T05:02:13.238Z,1.38
2023-12-11T05:04:39.852Z,1.67
2023-12-11T05:07:07.445Z,1.17
2023-12-11T05:09:34.127Z,1.27
2023-12-11T05:12:00.714Z,0.95
2023-12-11T05:14:27.309Z,1.85
2023-12-11T05:16:53.916Z,0.63
2023-12-11T05:19:20.724Z,1.50
2023-12-11T05:24:15.928Z,1.10
2023-12-11T05:26:42.877Z,0.88
2023-12-11T05:29:09.538Z,1.05
2023-12-11T05:31:36.145Z,1.65
2023-12-11T05:34:02.911Z,1.25
2023-12-11T05:38:56.061Z,1.38
2023-12-11T05:41:22.679Z,0.95
2023-12-11T05:43:49.254Z,1.10
2023-12-11T05:46:15.921Z,1.75
2023-12-11T05:48:42.659Z,0.68
2023-12-11T05:53:35.942Z,0.70
2023-12-11T05:56:02.559Z,0.70
2023-12-11T05:58:29.211Z,0.60
2023-12-11T06:00:55.961Z,1.10
2023-12-11T06:05:49.179Z,0.90
2023-12-11T06:08:15.827Z,1.27
2023-12-11T06:10:42.573Z,1.83
2023-12-11T06:13:09.683Z,2.05
2023-12-11T06:15:36.315Z,0.82
2023-12-11T06:18:03.243Z,0.77
2023-12-11T06:20:29.994Z,0.40
2023-12-11T06:22:56.674Z,0.73
2023-12-11T06:25:23.321Z,1.05
2023-12-11T06:27:52.857Z,0.98
2023-12-11T06:30:19.794Z,3.60
2023-12-11T06:32:46.725Z,0.85
2023-12-11T06:35:13.406Z,0.70
2023-12-11T06:37:40.112Z,0.80
2023-12-11T06:40:07.378Z,0.45
2023-12-11T06:42:38.877Z,0.80
2023-12-11T06:45:10.098Z,1.40
2023-12-11T06:47:37.718Z,0.85
2023-12-11T06:50:05.220Z,1.65
2023-12-11T06:52:32.070Z,1.02
2023-12-11T06:54:58.824Z,1.25
2023-12-11T06:59:51.971Z,0.85
2023-12-11T07:02:18.715Z,0.65
2023-12-11T07:07:12.787Z,1.48
2023-12-11T07:09:40.077Z,0.65
2023-12-11T07:12:07.067Z,1.13
2023-12-11T07:14:33.656Z,1.10
2023-12-11T07:17:00.227Z,0.70
2023-12-11T07:19:26.867Z,0.68
2023-12-11T07:21:53.523Z,1.65
2023-12-11T07:24:20.167Z,0.50
2023-12-11T07:26:46.751Z,1.23
2023-12-11T07:29:13.341Z,1.00
2023-12-11T07:31:45.539Z,0.85
2023-12-11T07:34:12.219Z,0.50
2023-12-11T07:36:38.907Z,1.80
2023-12-11T07:39:07.162Z,0.40
2023-12-11T07:41:33.872Z,1.30
2023-12-11T07:44:00.718Z,1.00
2023-12-11T07:48:55.120Z,0.95
2023-12-11T07:51:25.287Z,0.70
2023-12-11T07:53:54.030Z,1.13
2023-12-11T07:56:22.020Z,0.77
2023-12-11T07:58:49.004Z,0.68
2023-12-11T08:01:15.659Z,0.95
2023-12-11T08:03:42.513Z,0.52
2023-12-11T08:06:12.251Z,1.42
2023-12-11T08:08:44.696Z,0.60
2023-12-11T08:11:22.849Z,0.80
2023-12-11T08:13:49.931Z,0.40
2023-12-11T08:16:17.149Z,0.30
2023-12-11T08:18:45.838Z,0.63
2023-12-11T08:21:13.186Z,0.98
2023-12-11T08:23:40.912Z,0.70
2023-12-11T08:26:08.403Z,0.82
2023-12-11T08:28:35.120Z,1.42
2023-12-11T08:31:01.809Z,0.88
2023-12-11T08:33:28.455Z,1.30
2023-12-11T08:35:55.059Z,0.80
2023-12-11T08:38:23.515Z,0.90
2023-12-11T08:40:50.735Z,0.70
2023-12-11T08:43:17.891Z,1.38
2023-12-11T08:45:44.778Z,0.90
2023-12-11T08:48:11.562Z,0.90
2023-12-11T08:53:06.719Z,1.08
2023-12-11T08:55:34.025Z,0.65
2023-12-11T08:58:00.830Z,0.50
2023-12-11T09:00:29.538Z,0.90
2023-12-11T09:02:56.214Z,0.43
2023-12-11T09:05:22.932Z,0.95
2023-12-11T09:07:49.652Z,0.43
2023-12-11T09:10:16.409Z,1.23
2023-12-11T09:15:10.596Z,1.20
2023-12-11T09:17:37.554Z,0.52
2023-12-11T09:20:06.163Z,0.80
2023-12-11T09:22:33.137Z,1.15
2023-12-11T09:24:59.817Z,3.38
2023-12-11T09:27:26.537Z,1.48
2023-12-11T09:29:53.139Z,0.50
2023-12-11T09:32:19.831Z,0.65
2023-12-11T09:34:47.454Z,1.15
2023-12-11T09:37:15.452Z,0.75
2023-12-11T09:39:42.382Z,0.77
2023-12-11T09:42:09.498Z,0.68
2023-12-11T09:44:37.209Z,0.30
2023-12-11T09:47:11.866Z,1.92
2023-12-11T09:49:39.895Z,1.00
2023-12-11T09:52:06.927Z,1.13
2023-12-11T09:54:33.566Z,1.23
2023-12-11T09:57:01.229Z,0.50
2023-12-11T09:59:29.158Z,1.20
2023-12-11T10:01:56.645Z,1.48
2023-12-11T10:04:23.522Z,0.65
2023-12-11T10:06:53.633Z,0.30
2023-12-11T10:09:36.370Z,0.57
2023-12-11T10:12:07.285Z,0.60
2023-12-11T10:14:34.577Z,0.80
2023-12-11T10:17:17.426Z,0.70
2023-12-11T10:19:44.188Z,0.63
2023-12-11T10:22:26.088Z,1.60
2023-12-11T10:24:52.750Z,1.95
2023-12-11T10:27:28.650Z,0.60
2023-12-11T10:30:14.259Z,1.70
2023-12-11T10:32:41.267Z,0.35
2023-12-11T10:35:23.272Z,0.70
2023-12-11T10:37:49.903Z,2.08
2023-12-11T10:40:16.585Z,1.63
2023-12-11T10:42:43.204Z,0.95
2023-12-11T10:45:10.527Z,1.08
2023-12-11T10:47:38.342Z,1.23
2023-12-11T10:50:07.424Z,1.15
2023-12-11T10:52:34.965Z,1.85
2023-12-11T10:55:01.563Z,0.88
2023-12-11T10:57:29.735Z,1.67
2023-12-11T10:59:56.752Z,1.63
2023-12-11T11:02:25.386Z,0.63
2023-12-11T11:04:52.651Z,1.00
2023-12-11T11:07:33.677Z,1.73
2023-12-11T11:10:34.386Z,0.43
2023-12-11T11:13:09.375Z,1.35
2023-12-11T11:15:36.157Z,1.67
2023-12-11T11:20:39.111Z,1.13
2023-12-11T11:23:14.521Z,0.82
2023-12-11T11:25:41.766Z,0.98
2023-12-11T11:28:51.943Z,0.90
2023-12-11T11:31:24.085Z,1.25
2023-12-11T11:33:58.388Z,1.73
2023-12-11T11:36:47.892Z,1.75
2023-12-11T11:39:14.865Z,0.90
2023-12-11T11:44:10.909Z,1.13
2023-12-11T11:46:52.083Z,0.95
2023-12-11T11:49:28.631Z,1.67
2023-12-11T11:51:55.954Z,1.75
2023-12-11T11:54:24.810Z,1.38
2023-12-11T11:56:52.349Z,0.90
2023-12-11T11:59:20.368Z,1.10
2023-12-11T12:01:57.672Z,0.90
2023-12-11T12:04:35.580Z,0.60
2023-12-11T12:07:04.216Z,2.67
2023-12-11T12:09:32.303Z,2.42
2023-12-11T12:11:59.970Z,1.20
2023-12-11T12:14:27.111Z,1.35
2023-12-11T12:16:54.440Z,1.30
2023-12-11T12:19:34.062Z,1.55
2023-12-11T12:22:03.270Z,0.63
2023-12-11T12:24:30.817Z,1.50
2023-12-11T12:27:07.356Z,2.42
2023-12-11T12:29:35.043Z,1.05
2023-12-11T12:32:02.598Z,1.42
2023-12-11T12:34:31.902Z,0.85
2023-12-11T12:37:01.098Z,2.58
2023-12-11T12:39:28.188Z,2.35
2023-12-11T12:41:55.610Z,0.82
2023-12-11T12:44:22.650Z,1.77
2023-12-11T12:46:49.289Z,0.82
2023-12-11T12:49:17.484Z,2.00
2023-12-11T12:51:55.380Z,2.60
2023-12-11T12:54:25.114Z,1.30
2023-12-11T12:56:56.850Z,2.85
2023-12-11T12:59:24.169Z,2.42
2023-12-11T13:01:51.176Z,1.00
2023-12-11T13:04:18.003Z,4.05
2023-12-11T13:09:30.057Z,3.80
2023-12-11T13:11:56.701Z,2.00
2023-12-11T13:14:24.910Z,2.55
2023-12-11T13:16:51.490Z,1.02
2023-12-11T13:19:18.164Z,0.60
2023-12-11T13:21:44.822Z,0.88
2023-12-11T13:24:11.475Z,3.97
2023-12-11T13:26:38.115Z,1.13
2023-12-11T13:29:04.819Z,4.95
2023-12-11T13:33:58.004Z,7.55
2023-12-11T13:38:51.376Z,8.07
2023-12-11T13:41:17.984Z,13.77
2023-12-11T13:43:44.595Z,7.90
2023-12-11T13:46:11.185Z,12.20
2023-12-11T13:48:38.170Z,11.23
2023-12-11T13:51:06.820Z,7.90
2023-12-11T13:53:33.633Z,15.30
2023-12-11T13:56:01.326Z,12.52
2023-12-11T13:58:28.582Z,11.65
2023-12-11T14:00:55.348Z,12.95
2023-12-11T14:03:22.240Z,13.70
2023-12-11T14:05:52.930Z,9.85
2023-12-11T14:08:19.697Z,10.88
2023-12-11T14:10:46.413Z,8.23
2023-12-11T14:15:42.705Z,13.57
2023-12-11T14:18:11.444Z,12.23
2023-12-11T14:20:38.634Z,11.25
2023-12-11T14:23:05.339Z,12.18
2023-12-11T14:28:04.988Z,9.65
2023-12-11T14:30:36.593Z,10.63
2023-12-11T14:33:05.470Z,10.05
2023-12-11T14:35:32.252Z,9.75
2023-12-11T14:37:59.075Z,11.45
2023-12-11T14:42:52.307Z,22.13
2023-12-11T14:45:19.022Z,38.22
2023-12-11T14:50:12.694Z,35.28
2023-12-11T14:52:39.398Z,15.82
2023-12-11T14:57:34.585Z,12.52
2023-12-11T15:00:02.246Z,18.00
2023-12-11T15:02:28.738Z,19.80
2023-12-11T15:04:55.315Z,17.05
2023-12-11T15:07:21.894Z,14.18
2023-12-11T15:12:15.916Z,21.38
2023-12-11T15:14:44.261Z,24.90
2023-12-11T15:17:11.938Z,16.23
2023-12-11T15:19:42.025Z,27.00
2023-12-11T15:22:08.837Z,16.38
2023-12-11T15:24:35.425Z,42.65
2023-12-11T15:27:02.180Z,72.53
2023-12-11T15:29:28.939Z,177.43
2023-12-11T15:31:55.617Z,51.05
2023-12-11T15:36:49.077Z,64.82
2023-12-11T15:39:16.403Z,61.13
2023-12-11T15:41:43.022Z,109.60
2023-12-11T15:46:36.285Z,88.88
2023-12-11T15:49:03.108Z,94.78
2023-12-11T15:51:30.873Z,59.63
2023-12-11T15:53:57.594Z,77.95
2023-12-11T15:56:24.188Z,133.20
2023-12-11T16:01:17.689Z,85.90
2023-12-11T16:03:44.960Z,67.63
2023-12-11T16:06:11.750Z,69.47
2023-12-11T16:11:07.218Z,80.43
2023-12-11T16:13:34.034Z,78.07
2023-12-11T16:18:27.385Z,54.53
2023-12-11T16:20:54.527Z,52.50
2023-12-11T16:23:55.164Z,52.22
2023-12-11T16:27:31.068Z,40.50
2023-12-11T16:29:58.968Z,54.85
2023-12-11T16:32:25.572Z,39.83
2023-12-11T16:41:28.955Z,37.17
2023-12-11T16:43:56.085Z,50.97
2023-12-11T16:46:23.095Z,37.03
2023-12-11T16:49:12.444Z,42.10
2023-12-11T16:51:39.592Z,34.63
2023-12-11T16:54:06.894Z,32.97
2023-12-11T16:56:34.136Z,27.83
2023-12-11T16:59:00.677Z,28.75
2023-12-11T17:01:27.317Z,21.73
2023-12-11T17:06:23.999Z,38.58
2023-12-11T17:08:50.562Z,29.17
2023-12-11T17:11:17.144Z,25.88
2023-12-11T17:16:10.617Z,20.13
2023-12-11T17:18:37.410Z,22.17
2023-12-11T17:21:06.809Z,23.98
2023-12-11T17:23:33.859Z,25.13
2023-12-11T17:26:01.149Z,21.80
2023-12-11T17:28:27.838Z,20.75
2023-12-11T17:30:54.711Z,28.67
2023-12-11T17:33:21.290Z,31.15
2023-12-11T17:38:15.011Z,17.85
2023-12-11T17:40:41.607Z,20.25
2023-12-11T17:45:36.356Z,22.58
2023-12-11T17:48:06.479Z,22.33
2023-12-11T17:50:33.041Z,24.40
2023-12-11T17:52:59.661Z,18.13
2023-12-11T17:57:52.775Z,15.55
2023-12-11T18:00:19.807Z,21.73
2023-12-11T18:02:46.323Z,22.02
2023-12-11T18:05:13.201Z,14.10
2023-12-11T18:07:40.509Z,22.85
2023-12-11T18:10:07.284Z,19.85
2023-12-11T18:12:33.883Z,14.82
2023-12-11T18:15:01.094Z,19.42
2023-12-11T18:17:27.820Z,13.15
2023-12-11T18:19:54.604Z,25.23
2023-12-11T18:22:21.263Z,18.38
2023-12-11T18:24:47.941Z,19.30
2023-12-11T18:29:40.956Z,16.58
2023-12-11T18:34:43.028Z,16.13
2023-12-11T18:37:18.239Z,13.40
2023-12-11T18:43:23.722Z,16.13
2023-12-11T18:45:50.591Z,9.38
2023-12-11T18:51:09.401Z,15.35
2023-12-11T18:57:13.345Z,9.63
2023-12-11T18:59:39.939Z,10.52
2023-12-11T19:02:09.154Z,11.95
2023-12-11T19:04:36.349Z,16.50
2023-12-11T19:07:03.051Z,15.18
2023-12-11T19:11:58.396Z,13.70
2023-12-11T19:14:27.549Z,9.88
2023-12-11T19:16:54.690Z,9.90
2023-12-11T19:19:21.496Z,13.00
2023-12-11T19:21:50.406Z,10.00
2023-12-11T19:24:17.166Z,14.05
2023-12-11T19:26:43.763Z,7.88
2023-12-11T19:29:10.382Z,9.38
2023-12-11T19:34:06.031Z,7.47
2023-12-11T19:36:32.729Z,11.68
2023-12-11T19:41:25.712Z,10.95
2023-12-11T19:43:52.408Z,15.10
2023-12-11T19:48:45.726Z,16.02
2023-12-11T19:51:13.754Z,9.90
2023-12-11T19:53:40.960Z,9.90
2023-12-11T19:56:07.980Z,11.02
2023-12-11T20:02:36.512Z,15.18
2023-12-11T20:05:03.347Z,24.50
2023-12-11T20:07:30.221Z,22.15
2023-12-11T20:09:57.390Z,23.35
2023-12-11T20:12:24.284Z,13.75
2023-12-11T20:14:50.943Z,20.98
2023-12-11T20:17:20.059Z,15.77
2023-12-11T20:19:47.277Z,14.80
2023-12-11T20:24:40.599Z,16.45
2023-12-11T20:29:33.709Z,17.02
2023-12-11T20:34:27.046Z,10.25
2023-12-11T20:36:53.777Z,25.05
2023-12-11T20:41:47.126Z,18.23
2023-12-11T20:46:42.842Z,11.52
2023-12-11T20:49:09.513Z,11.80
2023-12-11T20:51:37.395Z,10.25
2023-12-11T20:54:04.820Z,12.65
2023-12-11T20:56:33.349Z,13.80
2023-12-11T20:59:00.611Z,16.35
2023-12-11T21:01:28.604Z,15.88
2023-12-11T21:03:56.987Z,17.63
2023-12-11T21:06:24.137Z,28.27
2023-12-11T21:08:56.140Z,12.23
2023-12-11T21:11:31.863Z,13.00
2023-12-11T21:13:59.758Z,8.05
2023-12-11T21:16:26.499Z,11.00
2023-12-11T21:18:53.214Z,9.10
2023-12-11T21:21:22.330Z,9.07
2023-12-11T21:23:51.971Z,9.25
2023-12-11T21:26:19.624Z,12.10
2023-12-11T21:28:47.597Z,9.75
2023-12-11T21:31:18.175Z,13.90
2023-12-11T21:33:45.315Z,11.30
2023-12-11T21:36:12.347Z,11.80
2023-12-11T21:38:39.562Z,10.85
2023-12-11T21:41:08.374Z,6.05
2023-12-11T21:43:34.906Z,10.27
2023-12-11T21:46:01.787Z,9.60
2023-12-11T21:48:28.529Z,14.35
2023-12-11T21:50:55.091Z,21.20
2023-12-11T21:53:21.648Z,14.05
2023-12-11T21:55:49.497Z,15.73
2023-12-11T21:58:16.426Z,25.77
2023-12-11T22:00:43.016Z,15.75
2023-12-11T22:03:09.674Z,10.70
2023-12-11T22:08:03.199Z,7.97
2023-12-11T22:12:56.220Z,36.05
2023-12-11T22:15:23.527Z,43.50
2023-12-11T22:17:51.036Z,65.53
2023-12-11T22:20:17.716Z,50.88
2023-12-11T22:25:12.766Z,27.02
2023-12-11T22:30:07.508Z,39.00
2023-12-11T22:32:34.114Z,32.40
2023-12-11T22:35:00.680Z,28.02
2023-12-11T22:37:27.458Z,27.92
2023-12-11T22:39:54.089Z,37.60
2023-12-11T22:44:47.417Z,26.80
2023-12-11T22:47:14.165Z,30.08
2023-12-11T22:49:40.719Z,27.25
2023-12-11T22:52:07.382Z,23.35
2023-12-11T22:57:00.284Z,23.90
2023-12-11T22:59:27.102Z,22.25
2023-12-11T23:01:53.639Z,30.90
2023-12-11T23:04:20.401Z,29.92
2023-12-11T23:06:47.090Z,23.02
2023-12-11T23:09:13.713Z,21.95
2023-12-11T23:11:40.247Z,27.10
2023-12-11T23:14:06.868Z,21.52
2023-12-11T23:19:00.417Z,17.10
2023-12-11T23:21:29.384Z,16.63
2023-12-11T23:23:59.982Z,28.45
2023-12-11T23:26:26.551Z,22.70
2023-12-11T23:28:55.226Z,23.35
2023-12-11T23:31:22.170Z,30.00
2023-12-11T23:33:49.154Z,22.00
2023-12-11T23:36:17.534Z,18.15
2023-12-11T23:38:44.145Z,20.08
2023-12-11T23:43:37.263Z,25.50
2023-12-11T23:48:30.463Z,17.58
2023-12-11T23:53:23.509Z,20.88
2023-12-11T23:55:50.034Z,17.95
2023-12-11T23:58:16.715Z,18.10
